createdAt,value
2018-03-15T00:02:29.247Z,95.41
2018-03-15T00:04:57.558Z,95.38
2018-03-15T00:07:25.901Z,95.38
2018-03-15T00:09:54.332Z,95.33
2018-03-15T00:12:22.718Z,95.31
2018-03-15T00:14:51.102Z,95.32
2018-03-15T00:17:22.097Z,95.25
2018-03-15T00:19:50.554Z,95.27
2018-03-15T00:22:19.636Z,95.21
2018-03-15T00:24:49.038Z,95.18
2018-03-15T00:27:17.395Z,95.13
2018-03-15T00:29:45.676Z,95.08
2018-03-15T00:32:14.182Z,95.07
2018-03-15T00:34:42.743Z,95.13
2018-03-15T00:37:11.035Z,95.12
2018-03-15T00:39:39.506Z,95.17
2018-03-15T00:42:08.079Z,95.17
2018-03-15T00:44:36.454Z,95.19
2018-03-15T00:47:05.812Z,95.21
2018-03-15T00:49:34.257Z,95.40
2018-03-15T00:52:02.574Z,95.49
2018-03-15T00:54:31.140Z,95.51
2018-03-15T00:57:01.189Z,95.52
2018-03-15T00:59:29.756Z,95.49
2018-03-15T01:01:58.338Z,95.48
2018-03-15T01:04:28.516Z,95.31
2018-03-15T01:06:56.991Z,95.15
2018-03-15T01:09:26.251Z,95.12
2018-03-15T01:11:54.547Z,95.25
2018-03-15T01:14:25.467Z,95.36
2018-03-15T01:16:53.886Z,95.45
2018-03-15T01:19:23.151Z,95.53
2018-03-15T01:21:51.506Z,95.62
2018-03-15T01:24:20.116Z,95.77
2018-03-15T01:26:50.164Z,95.81
2018-03-15T01:29:18.792Z,95.89
2018-03-15T01:31:47.103Z,95.99
2018-03-15T01:34:17.138Z,96.10
2018-03-15T01:36:46.662Z,96.16
2018-03-15T01:39:15.172Z,96.20
2018-03-15T01:41:45.278Z,96.20
2018-03-15T01:44:13.687Z,96.28
2018-03-15T01:46:42.091Z,96.30
2018-03-15T01:49:10.460Z,96.33
2018-03-15T01:51:38.841Z,96.33
2018-03-15T01:54:08.791Z,96.36
2018-03-15T01:56:37.111Z,96.35
2018-03-15T01:59:05.548Z,96.37
2018-03-15T02:01:33.929Z,96.44
2018-03-15T02:04:04.127Z,96.39
2018-03-15T02:06:32.542Z,96.39
2018-03-15T02:09:01.275Z,96.43
2018-03-15T02:11:31.327Z,96.48
2018-03-15T02:13:59.723Z,96.48
2018-03-15T02:16:29.596Z,96.45
2018-03-15T02:18:58.737Z,96.37
2018-03-15T02:21:27.240Z,96.32
2018-03-15T02:23:57.515Z,96.30
2018-03-15T02:26:26.763Z,96.33
2018-03-15T02:28:55.107Z,96.37
2018-03-15T02:31:23.474Z,96.47
2018-03-15T02:33:54.457Z,96.53
2018-03-15T02:36:22.845Z,96.61
2018-03-15T02:38:51.202Z,96.68
2018-03-15T02:41:19.753Z,96.65
2018-03-15T02:43:48.092Z,96.58
2018-03-15T02:46:16.470Z,96.56
2018-03-15T02:48:46.493Z,96.53
2018-03-15T02:51:14.995Z,96.50
2018-03-15T02:53:43.541Z,96.46
2018-03-15T02:56:13.696Z,96.48
2018-03-15T02:58:42.347Z,96.49
2018-03-15T03:01:10.683Z,96.51
2018-03-15T03:03:39.038Z,96.54
2018-03-15T03:06:07.362Z,96.54
2018-03-15T03:08:35.699Z,96.55
2018-03-15T03:11:04.060Z,96.62
2018-03-15T03:13:34.574Z,96.73
2018-03-15T03:16:03.029Z,96.63
2018-03-15T03:18:31.453Z,96.46
2018-03-15T03:21:00.031Z,96.18
2018-03-15T03:23:28.369Z,96.18
2018-03-15T03:25:56.899Z,96.34
2018-03-15T03:28:25.240Z,96.67
2018-03-15T03:30:55.526Z,96.79
2018-03-15T03:33:25.649Z,96.93
2018-03-15T03:35:54.408Z,97.04
2018-03-15T03:38:22.916Z,97.16
2018-03-15T03:40:52.129Z,97.29
2018-03-15T03:43:20.531Z,97.47
2018-03-15T03:45:49.103Z,97.47
2018-03-15T03:48:19.113Z,97.55
2018-03-15T03:50:49.380Z,97.58
2018-03-15T03:53:18.629Z,97.65
2018-03-15T03:55:46.951Z,97.73
2018-03-15T03:58:15.319Z,97.77
2018-03-15T04:00:44.026Z,97.82
2018-03-15T04:03:13.185Z,97.86
2018-03-15T04:05:41.515Z,97.95
2018-03-15T04:08:09.928Z,98.08
2018-03-15T04:10:40.705Z,98.18
2018-03-15T04:13:10.820Z,98.25
2018-03-15T04:15:39.556Z,98.34
2018-03-15T04:18:08.883Z,98.46
2018-03-15T04:20:37.350Z,98.66
2018-03-15T04:23:07.298Z,98.77
2018-03-15T04:25:35.608Z,98.93
2018-03-15T04:28:04.017Z,99.07
2018-03-15T04:30:32.409Z,99.19
2018-03-15T04:33:01.747Z,99.40
2018-03-15T04:35:30.231Z,99.62
2018-03-15T04:37:58.922Z,99.81
2018-03-15T04:40:29.259Z,100.00
2018-03-15T04:43:00.148Z,100.00
2018-03-15T04:45:28.523Z,100.00
2018-03-15T04:47:56.838Z,100.00
2018-03-15T04:50:25.162Z,100.00
2018-03-15T04:52:53.630Z,100.00
2018-03-15T04:55:22.125Z,100.00
2018-03-15T04:57:50.460Z,100.00
2018-03-15T05:00:19.114Z,100.00
2018-03-15T05:02:47.488Z,100.00
2018-03-15T05:05:15.961Z,100.00
2018-03-15T05:07:45.251Z,100.00
2018-03-15T05:10:17.911Z,100.00
2018-03-15T05:12:48.550Z,100.00
2018-03-15T05:15:19.192Z,100.00
2018-03-15T05:17:47.666Z,100.00
2018-03-15T05:20:17.711Z,100.00
2018-03-15T05:22:46.262Z,100.00
2018-03-15T05:25:16.412Z,100.00
2018-03-15T05:27:44.794Z,100.00
2018-03-15T05:30:13.162Z,100.00
2018-03-15T05:32:44.457Z,100.00
2018-03-15T05:35:13.919Z,100.00
2018-03-15T05:37:42.362Z,100.00
2018-03-15T05:40:10.914Z,100.00
2018-03-15T05:42:39.260Z,100.00
2018-03-15T05:45:08.382Z,100.00
2018-03-15T05:47:38.502Z,100.00
2018-03-15T05:50:08.692Z,100.00
2018-03-15T05:52:39.038Z,100.00
2018-03-15T05:55:08.242Z,100.00
2018-03-15T05:57:36.784Z,100.00
2018-03-15T06:00:05.200Z,99.98
2018-03-15T06:02:33.570Z,99.82
2018-03-15T06:05:03.761Z,99.64
2018-03-15T06:07:32.374Z,99.40
2018-03-15T06:10:02.483Z,99.24
2018-03-15T06:12:33.542Z,99.07
2018-03-15T06:15:01.924Z,98.95
2018-03-15T06:17:30.426Z,98.70
2018-03-15T06:20:00.476Z,98.51
2018-03-15T06:22:29.021Z,98.18
2018-03-15T06:24:57.430Z,98.02
2018-03-15T06:27:26.771Z,97.86
2018-03-15T06:29:58.212Z,97.77
2018-03-15T06:32:26.528Z,97.62
2018-03-15T06:34:57.370Z,97.49
2018-03-15T06:37:25.996Z,97.30
2018-03-15T06:39:55.178Z,97.12
2018-03-15T06:42:23.578Z,97.01
2018-03-15T06:44:51.996Z,96.92
2018-03-15T06:47:20.400Z,96.80
2018-03-15T06:49:48.752Z,96.72
2018-03-15T06:52:17.124Z,96.51
2018-03-15T06:54:45.547Z,96.33
2018-03-15T06:57:13.990Z,96.27
2018-03-15T06:59:43.106Z,96.15
2018-03-15T07:02:11.416Z,96.04
2018-03-15T07:04:41.616Z,95.86
2018-03-15T07:07:10.777Z,95.45
2018-03-15T07:09:39.318Z,95.21
2018-03-15T07:12:08.082Z,95.10
2018-03-15T07:14:36.820Z,94.78
2018-03-15T07:17:05.150Z,94.61
2018-03-15T07:19:35.328Z,94.54
2018-03-15T07:22:05.446Z,94.28
2018-03-15T07:24:34.852Z,93.90
2018-03-15T07:27:03.250Z,93.91
2018-03-15T07:29:32.666Z,93.58
2018-03-15T07:32:01.415Z,93.05
2018-03-15T07:34:30.451Z,92.89
2018-03-15T07:36:58.843Z,92.89
2018-03-15T07:39:28.063Z,92.15
2018-03-15T07:41:56.412Z,92.07
2018-03-15T07:44:24.810Z,91.85
2018-03-15T07:46:53.198Z,91.39
2018-03-15T07:49:21.715Z,91.30
2018-03-15T07:51:50.234Z,91.23
2018-03-15T07:54:20.783Z,91.25
2018-03-15T07:56:52.132Z,91.10
2018-03-15T07:59:20.458Z,90.30
2018-03-15T08:01:48.895Z,90.05
2018-03-15T08:04:17.190Z,89.54
2018-03-15T08:06:45.548Z,89.26
2018-03-15T08:09:14.009Z,89.13
2018-03-15T08:11:42.514Z,88.92
2018-03-15T08:14:10.821Z,88.67
2018-03-15T08:16:40.786Z,88.02
2018-03-15T08:19:11.828Z,87.57
2018-03-15T08:21:40.180Z,87.15
2018-03-15T08:24:08.743Z,87.24
2018-03-15T08:26:37.194Z,86.69
2018-03-15T08:29:05.539Z,86.07
2018-03-15T08:31:34.594Z,85.58
2018-03-15T08:34:03.052Z,85.28
2018-03-15T08:36:33.865Z,84.43
2018-03-15T08:39:02.268Z,84.15
2018-03-15T08:41:30.627Z,83.44
2018-03-15T08:43:59.046Z,83.83
2018-03-15T08:46:27.428Z,83.07
2018-03-15T08:48:55.766Z,81.95
2018-03-15T08:51:24.081Z,81.76
2018-03-15T08:53:52.723Z,81.81
2018-03-15T08:56:21.072Z,81.19
2018-03-15T08:58:49.374Z,81.19
2018-03-15T09:01:19.440Z,80.99
2018-03-15T09:03:49.510Z,80.58
2018-03-15T09:06:17.805Z,80.85
2018-03-15T09:08:46.953Z,81.45
2018-03-15T09:11:15.305Z,80.61
2018-03-15T09:13:43.674Z,80.71
2018-03-15T09:16:14.047Z,80.86
2018-03-15T09:18:43.267Z,80.49
2018-03-15T09:21:12.559Z,80.59
2018-03-15T09:23:42.650Z,80.61
2018-03-15T09:26:11.103Z,80.80
2018-03-15T09:28:39.573Z,80.78
2018-03-15T09:31:07.947Z,80.00
2018-03-15T09:33:39.002Z,79.37
2018-03-15T09:36:07.445Z,79.44
2018-03-15T09:38:35.787Z,79.68
2018-03-15T09:41:04.195Z,79.64
2018-03-15T09:43:32.697Z,79.69
2018-03-15T09:46:01.015Z,79.35
2018-03-15T09:48:29.364Z,78.23
2018-03-15T09:50:57.851Z,78.51
2018-03-15T09:53:26.473Z,78.61
2018-03-15T09:55:54.810Z,78.81
2018-03-15T09:58:23.138Z,78.40
2018-03-15T10:00:51.650Z,78.72
2018-03-15T10:03:20.083Z,78.69
2018-03-15T10:05:49.249Z,77.69
2018-03-15T10:08:17.551Z,77.74
2018-03-15T10:10:45.942Z,77.85
2018-03-15T10:13:16.907Z,77.47
2018-03-15T10:15:45.484Z,76.74
2018-03-15T10:18:14.033Z,76.55
2018-03-15T10:20:42.360Z,76.03
2018-03-15T10:23:10.988Z,75.94
2018-03-15T10:25:39.320Z,76.74
2018-03-15T10:28:08.386Z,76.10
2018-03-15T10:30:36.948Z,75.81
2018-03-15T10:33:10.933Z,74.85
2018-03-15T10:35:40.871Z,74.68
2018-03-15T10:38:09.290Z,74.61
2018-03-15T10:40:39.351Z,73.50
2018-03-15T10:43:07.751Z,74.96
2018-03-15T10:45:36.090Z,75.01
2018-03-15T10:48:04.519Z,74.62
2018-03-15T10:50:32.955Z,74.11
2018-03-15T10:53:01.636Z,73.72
2018-03-15T10:55:30.093Z,74.06
2018-03-15T10:57:58.615Z,73.88
2018-03-15T11:00:32.715Z,73.31
2018-03-15T11:03:08.153Z,73.17
2018-03-15T11:05:42.878Z,73.63
2018-03-15T11:08:16.725Z,73.24
2018-03-15T11:10:45.107Z,72.32
2018-03-15T11:13:13.530Z,73.15
2018-03-15T11:15:43.095Z,73.13
2018-03-15T11:18:11.506Z,73.31
2018-03-15T11:20:42.072Z,72.69
2018-03-15T11:23:12.088Z,71.62
2018-03-15T11:25:40.758Z,70.68
2018-03-15T11:28:09.153Z,70.94
2018-03-15T11:30:40.075Z,71.09
2018-03-15T11:33:08.552Z,70.32
2018-03-15T11:35:36.937Z,70.45
2018-03-15T11:38:05.251Z,69.00
2018-03-15T11:40:33.909Z,69.16
2018-03-15T11:43:02.264Z,69.56
2018-03-15T11:45:30.728Z,69.52
2018-03-15T11:47:59.172Z,69.83
2018-03-15T11:50:27.514Z,68.39
2018-03-15T11:52:57.566Z,68.56
2018-03-15T11:55:25.944Z,68.51
2018-03-15T11:57:54.264Z,67.24
2018-03-15T12:00:24.314Z,65.14
2018-03-15T12:02:52.616Z,65.94
2018-03-15T12:05:21.022Z,66.25
2018-03-15T12:07:49.531Z,66.65
2018-03-15T12:10:19.728Z,66.04
2018-03-15T12:12:49.951Z,65.68
2018-03-15T12:15:19.712Z,66.38
2018-03-15T12:17:48.100Z,65.57
2018-03-15T12:20:16.637Z,64.73
2018-03-15T12:22:45.166Z,64.63
2018-03-15T12:25:13.527Z,65.32
2018-03-15T12:27:41.906Z,65.43
2018-03-15T12:30:10.208Z,66.22
2018-03-15T12:32:38.649Z,65.23
2018-03-15T12:35:06.982Z,65.97
2018-03-15T12:37:35.316Z,65.29
2018-03-15T12:40:03.786Z,65.55
2018-03-15T12:42:32.222Z,63.36
2018-03-15T12:45:00.715Z,63.26
2018-03-15T12:47:29.886Z,64.44
2018-03-15T12:49:59.180Z,64.68
2018-03-15T12:52:27.543Z,64.80
2018-03-15T12:54:55.890Z,65.29
2018-03-15T12:57:24.282Z,64.97
2018-03-15T12:59:52.720Z,64.86
2018-03-15T13:02:21.911Z,64.77
2018-03-15T13:04:51.983Z,64.39
2018-03-15T13:07:20.661Z,64.68
2018-03-15T13:09:49.030Z,63.99
2018-03-15T13:12:17.381Z,63.52
2018-03-15T13:14:45.701Z,62.88
2018-03-15T13:17:15.905Z,61.67
2018-03-15T13:19:44.336Z,62.50
2018-03-15T13:22:12.668Z,62.21
2018-03-15T13:24:40.978Z,62.37
2018-03-15T13:27:09.306Z,62.55
2018-03-15T13:29:37.607Z,61.58
2018-03-15T13:32:06.061Z,61.03
2018-03-15T13:34:34.397Z,61.12
2018-03-15T13:37:02.750Z,61.38
2018-03-15T13:39:33.693Z,61.19
2018-03-15T13:42:02.112Z,61.02
2018-03-15T13:44:30.452Z,60.48
2018-03-15T13:46:58.766Z,61.02
2018-03-15T13:49:27.045Z,60.99
2018-03-15T13:51:55.444Z,61.83
2018-03-15T13:54:26.038Z,61.31
2018-03-15T13:56:56.802Z,61.20
2018-03-15T13:59:25.166Z,60.66
2018-03-15T14:01:53.453Z,60.40
2018-03-15T14:04:21.820Z,60.48
2018-03-15T14:06:50.317Z,61.26
2018-03-15T14:09:18.633Z,60.64
2018-03-15T14:11:47.679Z,61.09
2018-03-15T14:14:16.085Z,61.45
2018-03-15T14:16:44.392Z,61.54
2018-03-15T14:19:12.880Z,61.33
2018-03-15T14:21:42.898Z,61.56
2018-03-15T14:24:11.273Z,61.58
2018-03-15T14:26:39.546Z,61.78
2018-03-15T14:29:08.128Z,62.16
2018-03-15T14:31:36.467Z,62.50
2018-03-15T14:34:04.841Z,62.97
2018-03-15T14:36:33.158Z,62.84
2018-03-15T14:39:01.535Z,63.18
2018-03-15T14:41:29.886Z,62.77
2018-03-15T14:43:58.232Z,63.22
2018-03-15T14:46:26.587Z,63.30
2018-03-15T14:48:56.638Z,63.22
2018-03-15T14:51:25.203Z,62.78
2018-03-15T14:53:53.529Z,63.18
2018-03-15T14:56:22.068Z,63.62
2018-03-15T14:58:50.403Z,63.36
2018-03-15T15:01:18.816Z,63.58
2018-03-15T15:03:49.439Z,63.92
2018-03-15T15:06:18.301Z,64.18
2018-03-15T15:08:46.848Z,63.93
2018-03-15T15:11:16.321Z,64.48
2018-03-15T15:13:44.696Z,65.03
2018-03-15T15:16:13.025Z,65.42
2018-03-15T15:18:43.178Z,65.60
2018-03-15T15:21:11.662Z,65.31
2018-03-15T15:23:41.751Z,65.55
2018-03-15T15:26:10.052Z,66.00
2018-03-15T15:28:38.542Z,66.10
2018-03-15T15:31:09.529Z,66.34
2018-03-15T15:33:37.921Z,66.98
2018-03-15T15:36:06.346Z,67.00
2018-03-15T15:38:34.669Z,67.35
2018-03-15T15:41:03.434Z,67.17
2018-03-15T15:43:31.801Z,67.02
2018-03-15T15:46:00.097Z,66.84
2018-03-15T15:48:28.431Z,66.78
2018-03-15T15:50:57.898Z,66.49
2018-03-15T15:53:27.113Z,66.75
2018-03-15T15:55:56.599Z,67.12
2018-03-15T15:58:26.711Z,66.40
2018-03-15T16:00:56.891Z,66.79
2018-03-15T16:03:26.152Z,67.05
2018-03-15T16:05:54.459Z,67.27
2018-03-15T16:08:25.699Z,67.50
2018-03-15T16:10:56.751Z,67.98
2018-03-15T16:13:25.229Z,67.91
2018-03-15T16:15:53.878Z,68.28
2018-03-15T16:18:22.207Z,68.29
2018-03-15T16:20:50.610Z,68.68
2018-03-15T16:23:19.931Z,68.72
2018-03-15T16:25:48.277Z,68.84
2018-03-15T16:28:16.718Z,68.97
2018-03-15T16:30:45.189Z,69.26
2018-03-15T16:33:13.553Z,69.36
2018-03-15T16:35:41.965Z,69.32
2018-03-15T16:38:10.319Z,69.66
2018-03-15T16:40:38.623Z,69.96
2018-03-15T16:43:07.071Z,70.23
2018-03-15T16:45:37.033Z,70.21
2018-03-15T16:48:05.525Z,70.24
2018-03-15T16:50:34.713Z,70.66
2018-03-15T16:53:03.866Z,70.98
2018-03-15T16:55:32.292Z,70.85
2018-03-15T16:58:00.704Z,70.99
2018-03-15T17:00:30.743Z,71.28
2018-03-15T17:03:00.029Z,71.51
2018-03-15T17:05:28.603Z,71.72
2018-03-15T17:07:57.032Z,72.09
2018-03-15T17:10:25.298Z,72.29
2018-03-15T17:12:56.868Z,72.49
2018-03-15T17:15:27.811Z,72.69
2018-03-15T17:17:56.265Z,73.01
2018-03-15T17:20:24.710Z,73.13
2018-03-15T17:22:57.937Z,73.45
2018-03-15T17:25:30.050Z,73.69
2018-03-15T17:27:58.566Z,73.84
2018-03-15T17:30:27.965Z,73.93
2018-03-15T17:32:58.197Z,74.12
2018-03-15T17:35:26.791Z,74.36
2018-03-15T17:37:55.292Z,74.59
2018-03-15T17:40:23.692Z,74.70
2018-03-15T17:42:53.787Z,74.79
2018-03-15T17:45:22.167Z,74.76
2018-03-15T17:47:51.296Z,74.84
2018-03-15T17:50:19.727Z,75.07
2018-03-15T17:52:48.386Z,75.33
2018-03-15T17:55:18.646Z,75.49
2018-03-15T17:57:51.166Z,75.71
2018-03-15T18:00:22.203Z,75.72
2018-03-15T18:02:50.569Z,75.60
2018-03-15T18:05:19.042Z,75.90
2018-03-15T18:10:35.408Z,76.11
2018-03-15T18:13:03.810Z,76.28
2018-03-15T18:15:32.257Z,76.49
2018-03-15T18:18:00.584Z,76.63
2018-03-15T18:20:28.967Z,76.75
2018-03-15T18:22:57.502Z,76.79
2018-03-15T18:25:27.403Z,77.01
2018-03-15T18:27:55.796Z,77.20
2018-03-15T18:30:24.887Z,77.10
2018-03-15T18:32:53.406Z,77.23
2018-03-15T18:35:22.025Z,77.21
2018-03-15T18:37:50.415Z,77.18
2018-03-15T18:40:21.561Z,77.21
2018-03-15T18:42:49.998Z,77.32
2018-03-15T18:45:21.079Z,77.43
2018-03-15T18:47:49.489Z,77.51
2018-03-15T18:50:18.698Z,77.69
2018-03-15T18:52:49.511Z,77.73
2018-03-15T18:55:21.956Z,77.92
2018-03-15T18:57:50.389Z,78.01
2018-03-15T19:00:20.829Z,78.08
2018-03-15T19:02:50.106Z,78.08
2018-03-15T19:05:18.724Z,78.22
2018-03-15T19:07:47.341Z,78.32
2018-03-15T19:10:15.662Z,78.54
2018-03-15T19:12:45.869Z,78.60
2018-03-15T19:15:15.206Z,78.59
2018-03-15T19:17:43.628Z,78.62
2018-03-15T19:20:12.192Z,78.61
2018-03-15T19:22:41.369Z,78.64
2018-03-15T19:25:09.937Z,78.78
2018-03-15T19:27:40.189Z,78.97
2018-03-15T19:30:10.462Z,78.99
2018-03-15T19:35:15.543Z,78.97
2018-03-15T19:37:45.854Z,79.11
2018-03-15T19:40:14.380Z,79.15
2018-03-15T19:42:44.712Z,79.10
2018-03-15T19:45:13.086Z,79.12
2018-03-15T19:47:41.647Z,79.17
2018-03-15T19:50:11.704Z,79.18
2018-03-15T19:52:40.472Z,79.19
2018-03-15T19:55:08.779Z,79.35
2018-03-15T19:57:37.152Z,79.34
2018-03-15T20:00:05.519Z,79.44
2018-03-15T20:02:33.896Z,79.56
2018-03-15T20:05:02.241Z,79.65
2018-03-15T20:07:30.664Z,79.74
2018-03-15T20:09:59.310Z,79.83
2018-03-15T20:12:27.662Z,79.94
2018-03-15T20:14:56.022Z,79.95
2018-03-15T20:17:26.104Z,79.98
2018-03-15T20:19:54.496Z,80.16
2018-03-15T20:22:28.336Z,80.19
2018-03-15T20:24:56.795Z,80.23
2018-03-15T20:27:30.710Z,80.42
2018-03-15T20:30:01.133Z,80.61
2018-03-15T20:32:35.040Z,80.74
2018-03-15T20:35:04.547Z,80.74
2018-03-15T20:37:32.992Z,80.69
2018-03-15T20:40:06.966Z,80.66
2018-03-15T20:42:35.330Z,80.71
2018-03-15T20:45:05.513Z,80.88
2018-03-15T20:47:39.564Z,80.99
2018-03-15T20:50:07.861Z,81.19
2018-03-15T20:52:36.334Z,81.24
2018-03-15T20:55:05.781Z,81.38
2018-03-15T20:57:34.128Z,81.41
2018-03-15T21:00:02.443Z,81.39
2018-03-15T21:02:31.511Z,81.57
2018-03-15T21:05:00.773Z,81.61
2018-03-15T21:07:29.179Z,81.55
2018-03-15T21:09:57.535Z,81.83
2018-03-15T21:12:27.579Z,81.85
2018-03-15T21:14:56.795Z,81.81
2018-03-15T21:17:25.154Z,81.71
2018-03-15T21:19:55.826Z,81.88
2018-03-15T21:22:26.768Z,81.81
2018-03-15T21:24:56.208Z,81.72
2018-03-15T21:27:24.623Z,81.74
2018-03-15T21:29:53.046Z,81.81
2018-03-15T21:32:21.398Z,81.76
2018-03-15T21:34:49.782Z,81.70
2018-03-15T21:37:18.912Z,81.92
2018-03-15T21:39:47.488Z,81.94
2018-03-15T21:42:16.014Z,82.03
2018-03-15T21:44:46.104Z,82.40
2018-03-15T21:47:14.637Z,82.42
2018-03-15T21:49:44.704Z,82.62
2018-03-15T21:52:13.195Z,82.48
2018-03-15T21:54:43.106Z,82.27
2018-03-15T21:57:12.190Z,82.44
2018-03-15T21:59:40.565Z,82.50
2018-03-15T22:02:09.078Z,82.98
2018-03-15T22:04:37.474Z,82.85
2018-03-15T22:07:05.787Z,82.88
2018-03-15T22:09:36.290Z,82.94
2018-03-15T22:12:04.587Z,82.96
2018-03-15T22:14:36.311Z,82.90
2018-03-15T22:17:06.571Z,82.76
2018-03-15T22:19:34.928Z,82.75
2018-03-15T22:22:05.263Z,82.98
2018-03-15T22:24:36.050Z,82.97
2018-03-15T22:27:05.816Z,82.92
2018-03-15T22:29:34.166Z,83.04
2018-03-15T22:32:02.635Z,82.93
2018-03-15T22:34:31.637Z,83.01
2018-03-15T22:37:00.111Z,82.98
2018-03-15T22:39:30.220Z,83.04
2018-03-15T22:41:58.602Z,83.43
2018-03-15T22:44:26.898Z,84.05
2018-03-15T22:46:55.191Z,84.34
2018-03-15T22:49:25.207Z,84.33
2018-03-15T22:51:53.597Z,84.21
2018-03-15T22:54:22.055Z,84.05
2018-03-15T22:56:52.233Z,84.27
2018-03-15T22:59:22.465Z,84.13
2018-03-15T23:01:50.854Z,84.37
2018-03-15T23:04:20.993Z,84.60
2018-03-15T23:06:49.467Z,84.85
2018-03-15T23:09:17.821Z,84.81
2018-03-15T23:11:46.125Z,84.73
2018-03-15T23:14:14.428Z,84.79
2018-03-15T23:16:42.778Z,84.73
2018-03-15T23:19:11.071Z,84.62
2018-03-15T23:21:39.544Z,84.57
2018-03-15T23:24:07.887Z,84.68
2018-03-15T23:26:36.443Z,84.99
2018-03-15T23:29:05.505Z,85.00
2018-03-15T23:31:33.994Z,85.06
2018-03-15T23:34:02.440Z,85.20
2018-03-15T23:36:30.848Z,85.36
2018-03-15T23:38:59.218Z,85.41
2018-03-15T23:41:27.537Z,85.44
2018-03-15T23:43:56.062Z,85.36
2018-03-15T23:46:24.371Z,85.45
2018-03-15T23:48:52.693Z,85.61
2018-03-15T23:51:22.769Z,85.65
2018-03-15T23:53:51.071Z,85.68
2018-03-15T23:56:19.371Z,85.88
2018-03-15T23:58:47.661Z,86.45
